Time;durP1;ratioP1;P1;durP2;ratioP2;P2;SDS_P1;SDS_P2;PMS_P1;PMS_P2;Temp;Humidity;BMP_temperature;BMP_pressure;BME280_temperature;BME280_humidity;BME280_pressure;Samples;Min_cycle;Max_cycle;Signal;HPM_P1;HPM_P2
2021/01/20 00:00:10;;;;;;;3.00;2.30;;;3.70;99.90;;;;;;5089330;28;20437;-71
2021/01/20 00:02:36;;;;;;;4.87;2.07;;;3.70;99.90;;;;;;5091259;28;21028;-70
2021/01/20 00:05:04;;;;;;;3.00;2.03;;;3.80;99.90;;;;;;5091323;28;20626;-71
2021/01/20 00:07:31;;;;;;;3.40;2.00;;;3.80;99.90;;;;;;5096071;28;20521;-71
2021/01/20 00:09:57;;;;;;;2.43;1.67;;;3.70;99.90;;;;;;5096283;28;20509;-71
2021/01/20 00:12:24;;;;;;;3.70;2.00;;;3.70;99.90;;;;;;5095867;28;20545;-71
2021/01/20 00:14:50;;;;;;;3.93;1.93;;;3.70;99.90;;;;;;5091294;28;21002;-71
2021/01/20 00:17:19;;;;;;;4.70;2.50;;;3.70;99.90;;;;;;5090804;28;20478;-71
2021/01/20 00:19:45;;;;;;;2.65;1.80;;;3.70;99.90;;;;;;5089793;28;20842;-70
2021/01/20 00:22:13;;;;;;;2.90;2.13;;;3.80;99.90;;;;;;5085668;28;20316;-70
2021/01/20 00:24:40;;;;;;;3.13;1.80;;;3.80;99.90;;;;;;5070530;28;20515;-70
2021/01/20 00:27:06;;;;;;;3.50;2.10;;;3.90;99.90;;;;;;5071039;28;20451;-70
2021/01/20 00:29:33;;;;;;;3.47;1.93;;;3.90;99.90;;;;;;5069674;28;20557;-71
2021/01/20 00:31:59;;;;;;;2.70;1.90;;;3.80;99.90;;;;;;5070838;28;20941;-71
2021/01/20 00:34:26;;;;;;;2.77;2.03;;;3.70;99.90;;;;;;5070590;28;20934;-71
2021/01/20 00:36:52;;;;;;;2.80;1.87;;;3.70;99.90;;;;;;5074576;28;20588;-71
2021/01/20 00:39:20;;;;;;;2.20;1.77;;;3.70;99.90;;;;;;5072572;28;20518;-71
2021/01/20 00:41:46;;;;;;;2.90;1.87;;;3.60;99.90;;;;;;5089033;28;20542;-71
2021/01/20 00:44:13;;;;;;;2.83;2.17;;;3.60;99.90;;;;;;5070429;28;20479;-71
2021/01/20 00:46:40;;;;;;;3.00;1.90;;;3.50;99.90;;;;;;5089780;28;20956;-71
2021/01/20 00:49:06;;;;;;;3.80;2.07;;;3.40;99.90;;;;;;5090644;28;20499;-71
2021/01/20 00:51:32;;;;;;;3.23;2.17;;;3.30;99.90;;;;;;5089530;28;20478;-71
2021/01/20 00:53:59;;;;;;;3.70;2.30;;;3.30;99.90;;;;;;5071878;28;20829;-71
2021/01/20 00:56:26;;;;;;;4.83;2.70;;;3.30;99.90;;;;;;5088543;28;20850;-71
2021/01/20 00:58:52;;;;;;;3.60;2.73;;;3.20;99.90;;;;;;5090639;28;20525;-71
2021/01/20 01:01:19;;;;;;;4.30;2.40;;;3.30;99.90;;;;;;5088700;28;20541;-71
2021/01/20 01:03:45;;;;;;;5.57;2.70;;;3.30;99.90;;;;;;5090038;28;20839;-71
2021/01/20 01:06:11;;;;;;;3.27;2.30;;;3.20;99.90;;;;;;5070796;28;20559;-71
2021/01/20 01:08:38;;;;;;;4.20;2.50;;;3.20;99.90;;;;;;5071025;28;20528;-71
2021/01/20 01:11:04;;;;;;;2.73;2.00;;;3.10;99.90;;;;;;5070846;28;20438;-71
2021/01/20 01:13:32;;;;;;;4.30;2.80;;;3.10;99.90;;;;;;5070008;28;20459;-71
2021/01/20 01:15:58;;;;;;;6.20;2.87;;;3.00;99.90;;;;;;5070798;28;20538;-71
2021/01/20 01:18:25;;;;;;;5.30;3.00;;;3.00;99.90;;;;;;5070843;28;21044;-71
2021/01/20 01:20:51;;;;;;;4.80;3.13;;;2.90;99.90;;;;;;5070180;28;20990;-71
2021/01/20 01:23:18;;;;;;;4.13;2.80;;;2.90;99.90;;;;;;5070853;28;20489;-70
2021/01/20 01:25:44;;;;;;;4.43;2.60;;;2.90;99.90;;;;;;5070843;28;20607;-71
2021/01/20 01:28:12;;;;;;;2.83;2.43;;;2.90;99.90;;;;;;5071065;28;20526;-71
2021/01/20 01:30:39;;;;;;;3.40;3.03;;;2.80;99.90;;;;;;5070181;28;20596;-71
2021/01/20 01:33:08;;;;;;;3.23;2.23;;;2.90;99.90;;;;;;5070414;28;20554;-71
2021/01/20 01:35:34;;;;;;;4.10;2.27;;;2.90;99.90;;;;;;5070570;28;20530;-71
2021/01/20 01:38:01;;;;;;;3.13;2.10;;;3.00;99.90;;;;;;5070304;28;20490;-71
2021/01/20 01:40:27;;;;;;;4.40;2.60;;;3.00;99.90;;;;;;5069942;28;20930;-71
2021/01/20 01:42:53;;;;;;;3.10;2.20;;;3.10;99.90;;;;;;5070405;28;20665;-71
2021/01/20 01:45:20;;;;;;;3.90;2.33;;;3.20;99.90;;;;;;5070127;28;21031;-71
2021/01/20 01:47:47;;;;;;;5.23;2.63;;;3.20;99.90;;;;;;5070364;28;20606;-71
2021/01/20 01:50:14;;;;;;;2.90;2.30;;;3.30;99.90;;;;;;5069920;28;20485;-71
2021/01/20 01:52:43;;;;;;;5.40;3.00;;;3.20;99.90;;;;;;5070586;28;20546;-71
2021/01/20 01:55:11;;;;;;;3.60;2.07;;;3.30;99.90;;;;;;5070260;28;20522;-71
2021/01/20 01:57:40;;;;;;;3.60;2.43;;;3.20;99.90;;;;;;5070311;28;20948;-71
2021/01/20 02:00:08;;;;;;;6.70;3.00;;;3.30;99.90;;;;;;5069527;28;20443;-72
2021/01/20 02:02:35;;;;;;;4.73;2.17;;;3.20;99.90;;;;;;5070125;28;20554;-71
2021/01/20 02:05:03;;;;;;;4.63;2.90;;;3.20;99.90;;;;;;5070063;28;20478;-71
2021/01/20 02:07:30;;;;;;;4.13;2.57;;;3.10;99.90;;;;;;5080839;28;20475;-71
2021/01/20 02:09:59;;;;;;;3.60;2.17;;;3.10;99.90;;;;;;5084199;28;20478;-71
2021/01/20 02:12:49;;;;;;;2.20;1.53;;;3.10;99.90;;;;;;5079109;28;20545;-71
2021/01/20 02:15:23;;;;;;;3.03;2.00;;;3.00;99.90;;;;;;5069853;28;20526;-71
2021/01/20 02:17:54;;;;;;;5.33;4.33;;;3.00;99.90;;;;;;5070022;28;20443;-71
2021/01/20 02:20:51;;;;;;;3.80;2.80;;;3.10;99.90;;;;;;5069425;28;20893;-71
2021/01/20 02:23:19;;;;;;;2.50;2.13;;;3.00;99.90;;;;;;5069642;28;20502;-71
2021/01/20 02:26:15;;;;;;;3.90;2.70;;;3.10;99.90;;;;;;5069966;28;20435;-71
2021/01/20 02:29:23;;;;;;;3.53;3.00;;;3.20;99.90;;;;;;5070086;28;20453;-71
2021/01/20 02:31:50;;;;;;;4.73;3.27;;;3.30;99.90;;;;;;5034412;28;20533;-71
2021/01/20 02:34:19;;;;;;;3.63;2.30;;;3.40;99.90;;;;;;5069973;28;20518;-71
2021/01/20 02:36:47;;;;;;;3.57;2.43;;;3.30;99.90;;;;;;5069849;28;20521;-71
2021/01/20 02:39:14;;;;;;;4.00;2.70;;;3.30;99.90;;;;;;5068574;28;20440;-71
2021/01/20 02:41:40;;;;;;;4.50;2.73;;;3.30;99.90;;;;;;5069751;28;20542;-71
2021/01/20 02:44:07;;;;;;;3.60;2.67;;;3.40;99.90;;;;;;5069513;28;20570;-71
2021/01/20 02:46:33;;;;;;;3.97;2.80;;;3.20;99.90;;;;;;5069680;28;20518;-71
2021/01/20 02:49:00;;;;;;;3.27;2.37;;;3.20;99.90;;;;;;5069567;28;20500;-71
2021/01/20 02:51:37;;;;;;;4.07;2.40;;;3.10;99.90;;;;;;5069062;28;20542;-71
2021/01/20 02:54:05;;;;;;;3.87;2.50;;;3.10;99.90;;;;;;5069693;28;20438;-71
2021/01/20 02:56:33;;;;;;;2.80;2.40;;;3.00;99.90;;;;;;5069130;28;20451;-71
2021/01/20 02:59:02;;;;;;;3.00;2.60;;;3.00;99.90;;;;;;5069615;28;20443;-71
2021/01/20 03:01:31;;;;;;;3.30;2.17;;;3.00;99.90;;;;;;5069385;28;20541;-71
2021/01/20 03:04:00;;;;;;;3.70;2.47;;;3.00;99.90;;;;;;5069406;28;21162;-71
2021/01/20 03:06:27;;;;;;;3.33;2.10;;;3.20;99.90;;;;;;5069344;28;20442;-71
2021/01/20 03:08:55;;;;;;;3.03;1.90;;;3.30;99.90;;;;;;5069271;28;20479;-71
2021/01/20 03:11:21;;;;;;;3.27;2.20;;;3.40;99.90;;;;;;5067318;28;20500;-71
2021/01/20 03:13:49;;;;;;;3.03;2.33;;;3.40;99.90;;;;;;5069522;28;20427;-70
2021/01/20 03:16:23;;;;;;;2.37;1.70;;;3.30;99.90;;;;;;5068922;28;20897;-71
2021/01/20 03:18:50;;;;;;;2.60;1.80;;;3.40;99.90;;;;;;5069212;28;20478;-70
2021/01/20 03:21:17;;;;;;;3.33;1.80;;;3.70;99.90;;;;;;5068549;28;20535;-71
2021/01/20 03:23:44;;;;;;;2.20;1.70;;;3.90;99.90;;;;;;5070195;28;20481;-70
2021/01/20 03:26:10;;;;;;;2.20;1.33;;;3.90;99.90;;;;;;5073143;28;20439;-71
2021/01/20 03:28:37;;;;;;;3.80;2.10;;;3.80;99.90;;;;;;5073086;28;20995;-71
2021/01/20 03:31:03;;;;;;;3.37;1.73;;;3.80;99.90;;;;;;5071484;28;20522;-71
2021/01/20 03:33:29;;;;;;;2.40;1.57;;;3.80;99.90;;;;;;5075284;28;21049;-71
2021/01/20 03:35:56;;;;;;;4.73;1.40;;;3.70;99.90;;;;;;5074199;28;20447;-71
2021/01/20 03:38:23;;;;;;;5.00;1.80;;;3.50;99.90;;;;;;5073598;28;20541;-71
2021/01/20 03:40:49;;;;;;;2.67;1.70;;;3.30;99.90;;;;;;5073088;28;20507;-71
2021/01/20 03:43:16;;;;;;;2.53;1.50;;;3.10;99.90;;;;;;5073746;28;20494;-71
2021/01/20 03:45:42;;;;;;;3.20;1.20;;;2.90;99.90;;;;;;5073786;28;20562;-70
2021/01/20 03:48:08;;;;;;;3.07;1.80;;;2.70;99.90;;;;;;5073451;28;20442;-71
2021/01/20 03:50:35;;;;;;;2.40;1.70;;;2.50;99.90;;;;;;5073409;28;20537;-71
2021/01/20 03:53:01;;;;;;;3.30;2.00;;;2.40;99.90;;;;;;5073890;28;20550;-71
2021/01/20 03:55:28;;;;;;;3.10;2.13;;;2.40;99.90;;;;;;5073986;28;20446;-71
2021/01/20 03:57:55;;;;;;;2.87;2.07;;;2.40;99.90;;;;;;5073491;28;20476;-71
2021/01/20 04:00:22;;;;;;;3.53;2.07;;;2.50;99.90;;;;;;5071620;28;20538;-71
2021/01/20 04:02:48;;;;;;;3.37;2.60;;;2.40;99.90;;;;;;5070915;28;20471;-71
2021/01/20 04:05:14;;;;;;;3.97;2.33;;;2.30;99.90;;;;;;5071734;28;20570;-71
2021/01/20 04:07:41;;;;;;;3.27;2.97;;;2.30;99.90;;;;;;5072698;28;20546;-71
2021/01/20 04:10:09;;;;;;;2.47;2.00;;;2.30;99.90;;;;;;5072067;28;20538;-71
2021/01/20 04:12:37;;;;;;;3.53;1.90;;;2.20;99.90;;;;;;5070628;28;20498;-71
2021/01/20 04:15:05;;;;;;;3.30;2.10;;;2.20;99.90;;;;;;5072079;28;20445;-71
2021/01/20 04:17:31;;;;;;;3.53;2.23;;;2.10;99.90;;;;;;5072826;28;20437;-70
2021/01/20 04:19:58;;;;;;;2.63;1.60;;;2.20;99.90;;;;;;5071530;28;20529;-70
2021/01/20 04:22:24;;;;;;;2.90;2.00;;;2.20;99.90;;;;;;5072381;28;21232;-70
2021/01/20 04:24:51;;;;;;;3.13;2.00;;;2.20;99.90;;;;;;5072435;28;20479;-70
2021/01/20 04:27:17;;;;;;;2.33;1.90;;;2.10;99.90;;;;;;5072941;28;20550;-70
2021/01/20 04:29:45;;;;;;;3.20;2.20;;;2.20;99.90;;;;;;5071487;28;20470;-70
2021/01/20 04:32:11;;;;;;;5.20;1.80;;;2.20;99.90;;;;;;5072137;28;20495;-70
2021/01/20 04:34:38;;;;;;;2.90;2.00;;;2.30;99.90;;;;;;5074660;28;20531;-70
2021/01/20 04:37:04;;;;;;;2.67;2.00;;;2.40;99.90;;;;;;5073321;28;20819;-70
2021/01/20 04:39:30;;;;;;;2.33;1.80;;;2.40;99.90;;;;;;5071969;28;21149;-70
2021/01/20 04:41:58;;;;;;;4.37;2.30;;;2.70;99.90;;;;;;5071732;28;21335;-71
2021/01/20 04:44:24;;;;;;;2.70;2.10;;;2.90;99.90;;;;;;5071565;28;20605;-70
2021/01/20 04:46:53;;;;;;;4.73;2.37;;;3.00;99.90;;;;;;5071305;28;20443;-70
2021/01/20 04:49:20;;;;;;;3.63;2.10;;;3.10;99.90;;;;;;5070841;28;20443;-70
2021/01/20 04:51:50;;;;;;;3.00;2.00;;;3.10;99.90;;;;;;5071701;28;20466;-71
2021/01/20 04:54:17;;;;;;;2.60;1.90;;;3.20;99.90;;;;;;5071848;28;20530;-70
2021/01/20 04:56:44;;;;;;;2.93;1.93;;;3.10;99.90;;;;;;5071589;28;20439;-70
2021/01/20 04:59:11;;;;;;;2.90;2.07;;;3.10;99.90;;;;;;5070827;28;20451;-71
2021/01/20 05:01:38;;;;;;;2.40;1.77;;;3.00;99.90;;;;;;5071067;28;20517;-71
2021/01/20 05:04:07;;;;;;;3.30;2.40;;;3.00;99.90;;;;;;5071359;28;20561;-70
2021/01/20 05:06:34;;;;;;;4.40;2.40;;;3.00;99.90;;;;;;5071220;28;20552;-70
2021/01/20 05:09:00;;;;;;;3.20;2.23;;;2.90;99.90;;;;;;5071180;28;20539;-71
2021/01/20 05:11:37;;;;;;;3.07;2.17;;;2.80;99.90;;;;;;5070591;28;20451;-70
2021/01/20 05:14:11;;;;;;;2.93;2.37;;;2.80;99.90;;;;;;5070915;28;20951;-70
2021/01/20 05:16:38;;;;;;;3.93;2.40;;;2.80;99.90;;;;;;5070806;28;20949;-71
2021/01/20 05:19:06;;;;;;;3.53;2.43;;;2.80;99.90;;;;;;5070973;28;20938;-71
2021/01/20 05:21:32;;;;;;;2.73;2.00;;;2.80;99.90;;;;;;5070477;28;20927;-70
2021/01/20 05:24:18;;;;;;;2.97;2.20;;;2.80;99.90;;;;;;5070791;28;20980;-70
2021/01/20 05:26:46;;;;;;;3.03;2.43;;;2.90;99.90;;;;;;5070440;28;20458;-70
2021/01/20 05:29:13;;;;;;;4.23;2.43;;;2.90;99.90;;;;;;5070368;28;20525;-70
2021/01/20 05:31:40;;;;;;;3.80;2.10;;;2.90;99.90;;;;;;5070612;28;20951;-71
2021/01/20 05:34:25;;;;;;;4.27;2.40;;;3.00;99.90;;;;;;5070087;28;20530;-71
2021/01/20 05:37:04;;;;;;;2.50;2.30;;;3.10;99.90;;;;;;5069427;28;20443;-71
2021/01/20 05:39:31;;;;;;;4.30;2.50;;;3.30;99.90;;;;;;5069873;28;20526;-71
2021/01/20 05:42:01;;;;;;;3.70;2.10;;;3.30;99.90;;;;;;5070468;28;21119;-71
2021/01/20 05:44:28;;;;;;;4.93;2.40;;;3.40;99.90;;;;;;5070196;28;20489;-71
2021/01/20 05:46:54;;;;;;;5.47;2.90;;;3.50;99.90;;;;;;5069990;28;20512;-71
2021/01/20 05:49:26;;;;;;;4.23;2.80;;;3.60;99.90;;;;;;5069582;28;20459;-71
2021/01/20 05:51:53;;;;;;;6.63;2.27;;;3.70;99.90;;;;;;5070243;28;20471;-71
2021/01/20 05:54:34;;;;;;;4.43;2.20;;;3.80;99.90;;;;;;5070385;28;20447;-71
2021/01/20 05:57:12;;;;;;;3.30;2.17;;;3.90;99.90;;;;;;5070013;28;20442;-71
2021/01/20 05:59:38;;;;;;;3.40;2.17;;;4.00;99.90;;;;;;5069388;28;20450;-71
2021/01/20 06:02:04;;;;;;;5.73;2.53;;;4.10;99.90;;;;;;5069732;28;20471;-71
2021/01/20 06:04:34;;;;;;;3.27;2.23;;;4.10;99.90;;;;;;5069987;28;20582;-72
2021/01/20 06:07:04;;;;;;;4.93;2.90;;;4.20;99.90;;;;;;5089000;28;20533;-72
2021/01/20 06:09:30;;;;;;;3.63;2.50;;;4.20;99.90;;;;;;5110329;28;20877;-72
2021/01/20 06:11:57;;;;;;;4.53;2.50;;;4.20;99.90;;;;;;5108751;28;20963;-72
2021/01/20 06:14:23;;;;;;;3.37;2.30;;;4.20;99.90;;;;;;5110350;28;20442;-72
2021/01/20 06:16:53;;;;;;;4.07;2.33;;;4.20;99.90;;;;;;5108483;28;20541;-71
2021/01/20 06:19:21;;;;;;;3.90;2.60;;;4.20;99.90;;;;;;5074859;28;21017;-71
2021/01/20 06:21:50;;;;;;;4.17;2.73;;;4.30;99.90;;;;;;5086269;28;20462;-70
2021/01/20 06:24:24;;;;;;;3.30;2.57;;;4.20;99.90;;;;;;5088281;28;20566;-73
2021/01/20 06:26:56;;;;;;;6.23;2.70;;;4.30;99.90;;;;;;5087974;28;20532;-72
2021/01/20 06:29:28;;;;;;;5.43;3.23;;;4.30;99.90;;;;;;5087681;28;20964;-72
2021/01/20 06:31:58;;;;;;;6.50;3.40;;;4.30;99.90;;;;;;5088572;28;20936;-74
2021/01/20 06:34:25;;;;;;;3.90;2.67;;;4.40;99.90;;;;;;5088127;28;20427;-72
2021/01/20 06:36:52;;;;;;;3.50;3.00;;;4.40;99.90;;;;;;5088003;28;21027;-74
2021/01/20 06:39:37;;;;;;;5.53;3.53;;;4.50;99.90;;;;;;5087062;28;20511;-75
2021/01/20 06:42:24;;;;;;;6.00;3.30;;;4.50;99.90;;;;;;5087984;28;21002;-73
2021/01/20 06:45:15;;;;;;;3.97;2.97;;;4.50;99.90;;;;;;5087850;28;20531;-73
2021/01/20 06:48:03;;;;;;;6.00;2.90;;;4.50;99.90;;;;;;5087932;28;20545;-74
2021/01/20 06:50:31;;;;;;;5.93;3.53;;;4.50;99.90;;;;;;5068790;28;20538;-74
2021/01/20 06:53:03;;;;;;;4.27;3.20;;;4.50;99.90;;;;;;5078943;28;20569;-74
2021/01/20 06:55:33;;;;;;;5.20;3.37;;;4.50;99.90;;;;;;5087765;28;20525;-73
2021/01/20 06:58:19;;;;;;;6.50;3.43;;;4.50;99.90;;;;;;5087525;28;20478;-72
2021/01/20 07:01:12;;;;;;;4.93;2.97;;;4.50;99.90;;;;;;5091027;28;20529;-74
2021/01/20 07:03:39;;;;;;;5.70;3.40;;;4.60;99.90;;;;;;5092349;28;20515;-72
2021/01/20 07:06:43;;;;;;;4.73;2.93;;;4.60;99.90;;;;;;5091745;28;20486;-74
2021/01/20 07:09:13;;;;;;;3.77;3.33;;;4.60;99.90;;;;;;5090703;28;21047;-72
2021/01/20 07:12:07;;;;;;;5.80;3.87;;;4.60;99.90;;;;;;5091525;28;20466;-72
2021/01/20 07:14:34;;;;;;;6.03;3.60;;;4.70;99.90;;;;;;5055577;28;20486;-72
2021/01/20 07:17:01;;;;;;;4.97;3.60;;;4.60;99.90;;;;;;5091471;28;20537;-73
2021/01/20 07:19:29;;;;;;;7.00;3.23;;;4.60;99.90;;;;;;5090410;28;20474;-71
2021/01/20 07:21:55;;;;;;;5.13;4.60;;;4.50;99.90;;;;;;5091280;28;20791;-71
2021/01/20 07:24:22;;;;;;;5.53;3.73;;;4.50;99.90;;;;;;5091889;28;20581;-71
2021/01/20 07:26:49;;;;;;;5.03;4.50;;;4.50;99.90;;;;;;5091504;28;20537;-72
2021/01/20 07:29:16;;;;;;;4.93;3.70;;;4.50;99.90;;;;;;5090224;28;20530;-72
2021/01/20 07:31:47;;;;;;;5.40;3.60;;;4.50;99.90;;;;;;5090184;28;20580;-72
2021/01/20 07:34:14;;;;;;;4.47;3.40;;;4.50;99.90;;;;;;5091447;28;20533;-73
2021/01/20 07:36:40;;;;;;;5.10;3.80;;;4.50;99.90;;;;;;5088468;28;20525;-73
2021/01/20 07:39:20;;;;;;;6.37;5.10;;;4.50;99.90;;;;;;5089533;28;20528;-71
2021/01/20 07:41:53;;;;;;;5.60;3.97;;;4.50;99.90;;;;;;5090283;28;20495;-70
2021/01/20 07:44:20;;;;;;;6.80;4.63;;;4.40;99.90;;;;;;5089625;28;20987;-72
2021/01/20 07:46:57;;;;;;;5.83;4.57;;;4.50;99.90;;;;;;5089382;28;20442;-69
2021/01/20 07:49:23;;;;;;;5.40;4.63;;;4.50;99.90;;;;;;5088912;28;20533;-74
2021/01/20 07:51:59;;;;;;;8.43;4.53;;;4.50;99.90;;;;;;5088763;28;20489;-73
2021/01/20 07:54:33;;;;;;;4.90;4.23;;;4.60;99.90;;;;;;5086664;28;20524;-74
2021/01/20 07:57:01;;;;;;;6.60;4.60;;;4.60;99.90;;;;;;5087659;28;20533;-71
2021/01/20 07:59:27;;;;;;;5.93;4.40;;;4.60;99.90;;;;;;5088467;28;20473;-68
2021/01/20 08:02:05;;;;;;;7.93;5.47;;;4.70;99.90;;;;;;5088821;28;20469;-70
2021/01/20 08:04:31;;;;;;;6.80;5.37;;;4.80;99.90;;;;;;5089179;28;20592;-70
2021/01/20 08:06:57;;;;;;;5.80;4.50;;;4.80;99.90;;;;;;5089058;28;20470;-71
2021/01/20 08:09:35;;;;;;;6.17;4.73;;;4.90;99.90;;;;;;5082874;28;20507;-70
2021/01/20 08:12:04;;;;;;;7.30;4.43;;;4.90;99.90;;;;;;5068934;28;20547;-71
2021/01/20 08:14:31;;;;;;;7.37;4.20;;;5.00;99.90;;;;;;5079383;28;20442;-71
2021/01/20 08:16:57;;;;;;;6.33;3.90;;;5.10;99.90;;;;;;5088643;28;20450;-71
2021/01/20 08:19:24;;;;;;;5.70;4.47;;;5.20;99.90;;;;;;5087553;28;20465;-70
2021/01/20 08:21:51;;;;;;;7.03;4.23;;;5.30;99.90;;;;;;5088464;28;20454;-71
2021/01/20 08:24:21;;;;;;;6.37;3.70;;;5.30;99.90;;;;;;5088391;28;20568;-72
2021/01/20 08:26:53;;;;;;;5.67;4.10;;;5.40;99.90;;;;;;5088538;28;20473;-69
2021/01/20 08:29:21;;;;;;;4.43;3.90;;;5.50;99.90;;;;;;5087447;28;20948;-72
2021/01/20 08:32:06;;;;;;;4.50;3.40;;;5.60;99.90;;;;;;5088968;28;20469;-73
2021/01/20 08:34:35;;;;;;;5.70;4.10;;;5.60;99.90;;;;;;5079039;28;21290;-73
2021/01/20 08:37:17;;;;;;;6.70;5.37;;;5.60;99.90;;;;;;5092737;28;20491;-73
2021/01/20 08:39:53;;;;;;;5.30;4.30;;;5.70;99.90;;;;;;5073536;28;20511;-73
2021/01/20 08:42:27;;;;;;;6.63;5.13;;;5.80;99.90;;;;;;5087391;28;20469;-74
2021/01/20 08:45:13;;;;;;;7.53;5.07;;;5.80;99.90;;;;;;5086943;28;20477;-71
2021/01/20 08:47:50;;;;;;;8.33;6.20;;;5.80;99.90;;;;;;5068404;28;20447;-70
2021/01/20 08:50:19;;;;;;;8.40;5.77;;;5.90;99.90;;;;;;5067357;28;20446;-68
2021/01/20 08:52:48;;;;;;;6.50;4.87;;;5.90;99.90;;;;;;5068497;28;20468;-69
2021/01/20 08:55:26;;;;;;;7.07;5.47;;;6.00;99.90;;;;;;5067889;28;20439;-71
2021/01/20 08:58:24;;;;;;;8.17;5.17;;;6.00;99.90;;;;;;5068394;28;20548;-69
2021/01/20 09:00:57;;;;;;;8.40;5.80;;;6.10;99.90;;;;;;5067057;28;20447;-71
2021/01/20 09:03:25;;;;;;;7.97;5.10;;;6.20;99.90;;;;;;5068345;28;20558;-71
2021/01/20 09:05:53;;;;;;;5.97;4.80;;;6.20;99.90;;;;;;5071303;28;20542;-72
2021/01/20 09:08:20;;;;;;;8.80;5.13;;;6.20;99.90;;;;;;5069837;28;20455;-71
2021/01/20 09:10:48;;;;;;;7.80;4.77;;;6.30;99.90;;;;;;5068377;28;20447;-71
2021/01/20 09:13:17;;;;;;;5.70;4.33;;;6.30;99.90;;;;;;5068408;28;20451;-70
2021/01/20 09:15:44;;;;;;;5.50;4.27;;;6.20;99.90;;;;;;5066808;28;20540;-71
2021/01/20 09:18:12;;;;;;;5.00;4.37;;;6.30;99.90;;;;;;5066879;28;20451;-71
2021/01/20 09:20:39;;;;;;;6.73;4.57;;;6.30;99.90;;;;;;5066538;28;20475;-73
2021/01/20 09:23:05;;;;;;;5.13;3.70;;;6.40;99.90;;;;;;5067191;28;20494;-74
2021/01/20 09:25:32;;;;;;;4.53;3.53;;;6.40;99.90;;;;;;5069886;28;20570;-72
2021/01/20 09:27:59;;;;;;;5.53;3.97;;;6.50;99.90;;;;;;5088905;28;20442;-69
2021/01/20 09:30:26;;;;;;;8.10;4.00;;;6.50;99.90;;;;;;5086758;28;20454;-69
2021/01/20 09:32:53;;;;;;;6.93;4.30;;;6.60;99.90;;;;;;5089273;28;20467;-73
2021/01/20 09:35:21;;;;;;;4.30;3.57;;;6.60;99.90;;;;;;5088445;28;20528;-72
2021/01/20 09:37:49;;;;;;;6.40;4.87;;;6.70;99.90;;;;;;5087549;28;20520;-71
2021/01/20 09:40:17;;;;;;;7.50;4.63;;;6.70;99.90;;;;;;5086028;28;20474;-71
2021/01/20 09:42:44;;;;;;;6.33;4.30;;;6.80;99.90;;;;;;5086984;28;20538;-71
2021/01/20 09:45:12;;;;;;;7.53;3.77;;;6.70;99.90;;;;;;5086510;28;20562;-72
2021/01/20 09:47:40;;;;;;;4.57;3.80;;;6.80;99.90;;;;;;5087859;28;20509;-73
2021/01/20 09:50:08;;;;;;;4.30;3.77;;;6.80;99.90;;;;;;5089524;28;20728;-73
2021/01/20 09:52:36;;;;;;;5.70;4.60;;;6.90;99.90;;;;;;5096179;28;20500;-70
2021/01/20 09:55:04;;;;;;;6.57;4.10;;;7.00;99.90;;;;;;5097471;28;20445;-71
2021/01/20 09:57:31;;;;;;;6.60;4.30;;;7.10;99.90;;;;;;5094625;28;20816;-71
2021/01/20 09:59:57;;;;;;;6.50;4.17;;;7.10;99.90;;;;;;5094444;28;20445;-70
2021/01/20 10:02:24;;;;;;;7.17;4.20;;;7.10;99.90;;;;;;5086921;28;20553;-70
2021/01/20 10:04:50;;;;;;;4.30;3.77;;;7.20;99.90;;;;;;5086701;28;20510;-71
2021/01/20 10:07:17;;;;;;;5.50;4.27;;;7.30;99.90;;;;;;5084167;28;21016;-72
2021/01/20 10:09:44;;;;;;;6.13;3.80;;;7.30;99.90;;;;;;5072407;28;20446;-72
2021/01/20 10:12:12;;;;;;;6.00;4.00;;;7.40;99.90;;;;;;5086838;28;20944;-73
2021/01/20 10:14:39;;;;;;;6.63;4.27;;;7.40;99.90;;;;;;5086822;28;20487;-72
2021/01/20 10:17:06;;;;;;;5.23;3.53;;;7.40;99.90;;;;;;5086515;28;20588;-72
2021/01/20 10:19:32;;;;;;;5.10;3.67;;;7.50;99.90;;;;;;5085156;28;20546;-71
2021/01/20 10:21:58;;;;;;;6.17;4.20;;;7.60;99.90;;;;;;5085970;28;20947;-71
2021/01/20 10:24:25;;;;;;;4.13;3.73;;;7.70;99.90;;;;;;5085567;28;20557;-71
2021/01/20 10:26:52;;;;;;;5.67;4.37;;;7.60;99.90;;;;;;5086653;28;20481;-70
2021/01/20 10:29:19;;;;;;;5.30;3.60;;;7.60;99.90;;;;;;5086090;28;20530;-70
2021/01/20 10:31:46;;;;;;;3.80;3.40;;;7.60;99.90;;;;;;5086408;28;20595;-71
2021/01/20 10:34:13;;;;;;;5.07;3.60;;;7.60;99.90;;;;;;5086036;28;20470;-70
2021/01/20 10:36:40;;;;;;;4.57;3.53;;;7.60;99.90;;;;;;5086369;28;20485;-70
2021/01/20 10:39:08;;;;;;;5.30;4.40;;;7.60;99.90;;;;;;5085507;28;20470;-70
2021/01/20 10:41:34;;;;;;;4.10;3.70;;;7.60;99.90;;;;;;5085643;28;20515;-71
2021/01/20 10:44:01;;;;;;;5.37;3.90;;;7.60;99.90;;;;;;5086453;28;20481;-70
2021/01/20 10:46:28;;;;;;;5.73;3.87;;;7.60;99.90;;;;;;5085727;28;20616;-71
2021/01/20 10:48:55;;;;;;;5.30;4.20;;;7.70;99.90;;;;;;5085890;28;20504;-70
2021/01/20 10:51:22;;;;;;;5.70;4.47;;;7.80;99.90;;;;;;5085298;28;21028;-72
2021/01/20 10:53:49;;;;;;;4.40;3.90;;;8.00;99.90;;;;;;5085396;28;20454;-71
2021/01/20 10:56:16;;;;;;;4.00;3.57;;;8.00;99.90;;;;;;5085844;28;20439;-71
2021/01/20 10:58:44;;;;;;;6.77;4.70;;;8.10;99.90;;;;;;5087063;28;20453;-72
2021/01/20 11:01:11;;;;;;;7.53;4.13;;;8.10;99.90;;;;;;5085032;28;20525;-70
2021/01/20 11:03:40;;;;;;;6.60;4.50;;;8.00;99.90;;;;;;5086172;28;20553;-70
2021/01/20 11:06:06;;;;;;;5.83;4.60;;;8.10;99.90;;;;;;5086035;28;20549;-70
2021/01/20 11:08:33;;;;;;;5.00;4.37;;;8.10;99.90;;;;;;5085691;28;21019;-73
2021/01/20 11:10:59;;;;;;;6.20;4.97;;;8.20;99.90;;;;;;5085478;28;20484;-72
2021/01/20 11:13:25;;;;;;;4.83;4.27;;;8.20;99.90;;;;;;5086070;28;20465;-71
2021/01/20 11:15:52;;;;;;;6.17;5.00;;;8.30;99.90;;;;;;5085283;28;20877;-70
2021/01/20 11:18:20;;;;;;;6.80;5.43;;;8.30;99.90;;;;;;5086012;28;20446;-71
2021/01/20 11:20:48;;;;;;;8.73;4.73;;;8.30;99.90;;;;;;5084704;28;20449;-70
2021/01/20 11:23:16;;;;;;;9.73;5.20;;;8.40;99.90;;;;;;5085118;28;20505;-70
2021/01/20 11:25:45;;;;;;;8.33;5.93;;;8.40;99.90;;;;;;5085693;28;20482;-70
2021/01/20 11:28:11;;;;;;;5.40;4.77;;;8.30;99.90;;;;;;5085641;28;20477;-71
2021/01/20 11:30:38;;;;;;;8.03;5.10;;;8.30;99.90;;;;;;5083679;28;20533;-70
2021/01/20 11:33:04;;;;;;;6.90;5.43;;;8.40;99.90;;;;;;5085127;28;20494;-70
2021/01/20 11:35:32;;;;;;;6.37;5.43;;;8.30;99.90;;;;;;5085168;28;20538;-70
2021/01/20 11:37:58;;;;;;;9.33;5.07;;;8.30;99.90;;;;;;5085324;28;20473;-69
2021/01/20 11:40:25;;;;;;;7.27;5.47;;;8.40;99.90;;;;;;5084571;28;20478;-67
2021/01/20 11:42:57;;;;;;;7.70;5.10;;;8.40;99.90;;;;;;5084966;28;20494;-70
2021/01/20 11:45:27;;;;;;;8.80;5.10;;;8.40;99.90;;;;;;5086692;28;20491;-69
2021/01/20 11:47:53;;;;;;;7.00;5.47;;;8.40;99.90;;;;;;5089112;28;20566;-70
2021/01/20 11:50:20;;;;;;;7.40;5.60;;;8.50;99.90;;;;;;5088183;28;20817;-71
2021/01/20 11:52:48;;;;;;;6.10;4.70;;;8.50;99.90;;;;;;5088324;28;20462;-70
2021/01/20 11:55:14;;;;;;;6.97;5.40;;;8.50;99.90;;;;;;5088870;28;20450;-72
2021/01/20 11:57:41;;;;;;;8.83;5.70;;;8.50;99.90;;;;;;5089371;28;20557;-72
2021/01/20 12:00:09;;;;;;;7.60;5.10;;;8.40;99.90;;;;;;5087786;28;20517;-71
2021/01/20 12:02:36;;;;;;;5.87;4.80;;;8.40;99.90;;;;;;5079299;28;20467;-71
2021/01/20 12:05:04;;;;;;;8.00;4.97;;;8.30;99.90;;;;;;5069775;28;21008;-72
2021/01/20 12:07:31;;;;;;;7.83;5.47;;;8.30;99.90;;;;;;5070327;28;20508;-72
2021/01/20 12:09:58;;;;;;;8.13;4.90;;;8.40;99.90;;;;;;5069479;28;21050;-72
2021/01/20 12:12:25;;;;;;;5.63;4.93;;;8.40;99.90;;;;;;5070522;28;21099;-72
2021/01/20 12:14:51;;;;;;;10.63;5.17;;;8.40;99.90;;;;;;5070361;28;20522;-72
2021/01/20 12:17:17;;;;;;;6.30;4.80;;;8.50;99.90;;;;;;5070362;28;20546;-72
2021/01/20 12:19:44;;;;;;;5.67;4.70;;;8.70;99.90;;;;;;5069593;28;20451;-72
2021/01/20 12:22:10;;;;;;;8.20;5.07;;;8.70;99.90;;;;;;5069837;28;20497;-72
2021/01/20 12:24:37;;;;;;;6.50;4.97;;;8.80;99.90;;;;;;5069847;28;20624;-72
2021/01/20 12:27:04;;;;;;;5.77;4.67;;;8.80;99.90;;;;;;5070362;28;20481;-72
2021/01/20 12:29:30;;;;;;;8.87;5.37;;;8.80;99.90;;;;;;5070168;28;20532;-71
2021/01/20 12:31:57;;;;;;;6.80;5.60;;;8.80;99.90;;;;;;5081129;28;21193;-72
2021/01/20 12:34:23;;;;;;;10.70;5.20;;;8.70;99.90;;;;;;5084874;28;20530;-72
2021/01/20 12:36:50;;;;;;;7.20;4.70;;;8.80;99.90;;;;;;5069225;28;20529;-72
2021/01/20 12:39:16;;;;;;;7.93;5.67;;;8.90;99.90;;;;;;5069705;28;20447;-72
2021/01/20 12:41:43;;;;;;;8.80;5.10;;;9.10;99.90;;;;;;5068815;28;20475;-72
2021/01/20 12:44:10;;;;;;;8.10;5.10;;;9.00;99.90;;;;;;5070864;28;20490;-72
2021/01/20 12:46:38;;;;;;;6.17;4.70;;;9.10;99.90;;;;;;5070797;28;20475;-72
2021/01/20 12:49:04;;;;;;;8.37;5.30;;;9.10;99.90;;;;;;5070009;28;20530;-72
2021/01/20 12:51:31;;;;;;;8.93;5.30;;;9.20;99.90;;;;;;5070577;28;21046;-73
2021/01/20 12:53:58;;;;;;;8.50;5.70;;;9.20;99.90;;;;;;5070317;28;20480;-75
2021/01/20 12:56:24;;;;;;;6.20;4.57;;;9.10;99.90;;;;;;5069818;28;20523;-73
2021/01/20 12:58:50;;;;;;;6.63;4.60;;;9.10;99.90;;;;;;5069939;28;20447;-72
2021/01/20 13:01:18;;;;;;;7.30;5.80;;;9.10;99.90;;;;;;5070369;28;20877;-73
2021/01/20 13:03:44;;;;;;;7.87;4.87;;;9.10;99.90;;;;;;5070411;28;20474;-74
2021/01/20 13:06:11;;;;;;;6.40;4.97;;;9.10;99.90;;;;;;5068849;28;20487;-73